sensor_id;sensor_type;location;lat;lon;timestamp;P1;durP1;ratioP1;P2;durP2;ratioP2
60243;SDS011;46106;51.468;5.814;2023-01-05T00:01:45;47.15;;;4.75;;
60243;SDS011;46106;51.468;5.814;2023-01-05T00:04:10;34.40;;;3.80;;
60243;SDS011;46106;51.468;5.814;2023-01-05T00:06:36;40.63;;;4.00;;
60243;SDS011;46106;51.468;5.814;2023-01-05T00:09:02;46.83;;;5.60;;
60243;SDS011;46106;51.468;5.814;2023-01-05T00:11:28;42.95;;;4.38;;
60243;SDS011;46106;51.468;5.814;2023-01-05T00:14:13;40.42;;;4.18;;
60243;SDS011;46106;51.468;5.814;2023-01-05T00:17:02;44.60;;;6.00;;
60243;SDS011;46106;51.468;5.814;2023-01-05T00:19:47;37.38;;;5.45;;
60243;SDS011;46106;51.468;5.814;2023-01-05T00:22:32;50.67;;;6.93;;
60243;SDS011;46106;51.468;5.814;2023-01-05T00:27:30;33.90;;;3.97;;
60243;SDS011;46106;51.468;5.814;2023-01-05T00:29:56;54.50;;;5.43;;
60243;SDS011;46106;51.468;5.814;2023-01-05T00:32:22;44.22;;;6.57;;
60243;SDS011;46106;51.468;5.814;2023-01-05T00:34:47;38.97;;;3.60;;
60243;SDS011;46106;51.468;5.814;2023-01-05T00:37:14;65.22;;;5.82;;
60243;SDS011;46106;51.468;5.814;2023-01-05T00:39:40;43.15;;;5.53;;
60243;SDS011;46106;51.468;5.814;2023-01-05T00:42:05;50.22;;;4.65;;
60243;SDS011;46106;51.468;5.814;2023-01-05T00:44:31;52.67;;;6.25;;
60243;SDS011;46106;51.468;5.814;2023-01-05T00:46:56;41.17;;;4.53;;
60243;SDS011;46106;51.468;5.814;2023-01-05T00:49:22;48.42;;;4.35;;
60243;SDS011;46106;51.468;5.814;2023-01-05T00:51:47;40.88;;;4.43;;
60243;SDS011;46106;51.468;5.814;2023-01-05T00:54:12;41.70;;;4.15;;
60243;SDS011;46106;51.468;5.814;2023-01-05T00:56:38;34.55;;;4.38;;
60243;SDS011;46106;51.468;5.814;2023-01-05T00:59:03;41.58;;;4.70;;
60243;SDS011;46106;51.468;5.814;2023-01-05T01:01:29;43.78;;;5.28;;
60243;SDS011;46106;51.468;5.814;2023-01-05T01:03:54;38.33;;;4.63;;
60243;SDS011;46106;51.468;5.814;2023-01-05T01:06:20;45.40;;;4.78;;
60243;SDS011;46106;51.468;5.814;2023-01-05T01:08:45;43.70;;;3.70;;
60243;SDS011;46106;51.468;5.814;2023-01-05T01:11:11;48.25;;;4.93;;
60243;SDS011;46106;51.468;5.814;2023-01-05T01:13:36;44.47;;;4.10;;
60243;SDS011;46106;51.468;5.814;2023-01-05T01:16:06;41.83;;;3.92;;
60243;SDS011;46106;51.468;5.814;2023-01-05T01:18:32;44.60;;;4.88;;
60243;SDS011;46106;51.468;5.814;2023-01-05T01:20:58;39.92;;;4.50;;
60243;SDS011;46106;51.468;5.814;2023-01-05T01:23:23;35.65;;;5.03;;
60243;SDS011;46106;51.468;5.814;2023-01-05T01:25:49;45.35;;;5.53;;
60243;SDS011;46106;51.468;5.814;2023-01-05T01:28:14;39.08;;;4.28;;
60243;SDS011;46106;51.468;5.814;2023-01-05T01:30:40;36.63;;;4.30;;
60243;SDS011;46106;51.468;5.814;2023-01-05T01:33:05;39.10;;;4.05;;
60243;SDS011;46106;51.468;5.814;2023-01-05T01:35:31;48.55;;;5.10;;
60243;SDS011;46106;51.468;5.814;2023-01-05T01:37:56;42.20;;;4.32;;
60243;SDS011;46106;51.468;5.814;2023-01-05T01:40:21;33.67;;;4.65;;
60243;SDS011;46106;51.468;5.814;2023-01-05T01:42:47;41.30;;;6.30;;
60243;SDS011;46106;51.468;5.814;2023-01-05T01:45:17;39.22;;;4.70;;
60243;SDS011;46106;51.468;5.814;2023-01-05T01:47:52;45.45;;;5.30;;
60243;SDS011;46106;51.468;5.814;2023-01-05T01:50:22;48.63;;;5.20;;
60243;SDS011;46106;51.468;5.814;2023-01-05T01:53:34;33.65;;;3.80;;
60243;SDS011;46106;51.468;5.814;2023-01-05T01:56:03;51.22;;;4.50;;
60243;SDS011;46106;51.468;5.814;2023-01-05T01:58:30;50.83;;;5.20;;
60243;SDS011;46106;51.468;5.814;2023-01-05T02:00:57;47.45;;;5.30;;
60243;SDS011;46106;51.468;5.814;2023-01-05T02:03:25;43.95;;;4.78;;
60243;SDS011;46106;51.468;5.814;2023-01-05T02:05:52;52.45;;;4.85;;
60243;SDS011;46106;51.468;5.814;2023-01-05T02:08:18;44.90;;;5.20;;
60243;SDS011;46106;51.468;5.814;2023-01-05T02:22:33;44.92;;;4.45;;
60243;SDS011;46106;51.468;5.814;2023-01-05T02:35:56;50.65;;;5.50;;
60243;SDS011;46106;51.468;5.814;2023-01-05T02:38:39;52.35;;;5.10;;
60243;SDS011;46106;51.468;5.814;2023-01-05T02:41:23;36.90;;;3.83;;
60243;SDS011;46106;51.468;5.814;2023-01-05T02:43:54;49.13;;;5.60;;
60243;SDS011;46106;51.468;5.814;2023-01-05T02:46:21;62.42;;;5.70;;
60243;SDS011;46106;51.468;5.814;2023-01-05T02:48:46;57.15;;;4.93;;
60243;SDS011;46106;51.468;5.814;2023-01-05T02:51:16;44.67;;;3.83;;
60243;SDS011;46106;51.468;5.814;2023-01-05T02:53:52;45.38;;;5.55;;
60243;SDS011;46106;51.468;5.814;2023-01-05T02:56:24;47.42;;;4.78;;
60243;SDS011;46106;51.468;5.814;2023-01-05T02:59:06;43.22;;;4.55;;
60243;SDS011;46106;51.468;5.814;2023-01-05T03:01:39;50.28;;;5.80;;
60243;SDS011;46106;51.468;5.814;2023-01-05T03:04:20;40.15;;;4.38;;
60243;SDS011;46106;51.468;5.814;2023-01-05T03:06:54;54.00;;;6.40;;
60243;SDS011;46106;51.468;5.814;2023-01-05T03:09:24;34.38;;;3.90;;
60243;SDS011;46106;51.468;5.814;2023-01-05T03:15:03;52.00;;;6.18;;
60243;SDS011;46106;51.468;5.814;2023-01-05T03:17:40;63.63;;;5.95;;
60243;SDS011;46106;51.468;5.814;2023-01-05T03:20:11;58.53;;;4.82;;
60243;SDS011;46106;51.468;5.814;2023-01-05T03:22:38;55.00;;;4.95;;
60243;SDS011;46106;51.468;5.814;2023-01-05T03:25:25;50.63;;;5.22;;
60243;SDS011;46106;51.468;5.814;2023-01-05T03:28:17;52.75;;;5.40;;
60243;SDS011;46106;51.468;5.814;2023-01-05T03:31:08;50.00;;;4.55;;
60243;SDS011;46106;51.468;5.814;2023-01-05T03:34:08;51.08;;;5.38;;
60243;SDS011;46106;51.468;5.814;2023-01-05T03:37:09;52.50;;;5.13;;
60243;SDS011;46106;51.468;5.814;2023-01-05T03:39:40;48.17;;;5.32;;
60243;SDS011;46106;51.468;5.814;2023-01-05T03:42:09;54.17;;;6.20;;
60243;SDS011;46106;51.468;5.814;2023-01-05T03:44:36;47.50;;;5.50;;
60243;SDS011;46106;51.468;5.814;2023-01-05T03:47:03;47.05;;;5.07;;
60243;SDS011;46106;51.468;5.814;2023-01-05T03:49:29;45.85;;;3.83;;
60243;SDS011;46106;51.468;5.814;2023-01-05T03:51:54;44.88;;;5.28;;
60243;SDS011;46106;51.468;5.814;2023-01-05T03:54:20;50.78;;;4.60;;
60243;SDS011;46106;51.468;5.814;2023-01-05T03:56:45;48.28;;;6.20;;
60243;SDS011;46106;51.468;5.814;2023-01-05T03:59:11;43.10;;;4.63;;
60243;SDS011;46106;51.468;5.814;2023-01-05T04:01:36;53.40;;;5.57;;
60243;SDS011;46106;51.468;5.814;2023-01-05T04:04:02;47.65;;;5.00;;
60243;SDS011;46106;51.468;5.814;2023-01-05T04:06:27;51.65;;;4.65;;
60243;SDS011;46106;51.468;5.814;2023-01-05T04:08:53;41.85;;;5.97;;
60243;SDS011;46106;51.468;5.814;2023-01-05T04:11:19;51.35;;;5.53;;
60243;SDS011;46106;51.468;5.814;2023-01-05T04:13:46;48.00;;;4.38;;
60243;SDS011;46106;51.468;5.814;2023-01-05T04:16:12;40.13;;;4.13;;
60243;SDS011;46106;51.468;5.814;2023-01-05T04:18:38;43.97;;;5.60;;
60243;SDS011;46106;51.468;5.814;2023-01-05T04:21:03;59.22;;;5.53;;
60243;SDS011;46106;51.468;5.814;2023-01-05T04:23:29;43.78;;;4.35;;
60243;SDS011;46106;51.468;5.814;2023-01-05T04:25:55;50.67;;;4.57;;
60243;SDS011;46106;51.468;5.814;2023-01-05T04:28:20;48.88;;;5.10;;
60243;SDS011;46106;51.468;5.814;2023-01-05T04:30:49;43.47;;;4.50;;
60243;SDS011;46106;51.468;5.814;2023-01-05T04:33:16;40.38;;;4.22;;
60243;SDS011;46106;51.468;5.814;2023-01-05T04:35:42;41.75;;;4.22;;
60243;SDS011;46106;51.468;5.814;2023-01-05T04:38:07;56.05;;;4.57;;
60243;SDS011;46106;51.468;5.814;2023-01-05T04:40:33;55.47;;;4.78;;
60243;SDS011;46106;51.468;5.814;2023-01-05T04:42:58;42.30;;;3.78;;
60243;SDS011;46106;51.468;5.814;2023-01-05T04:45:24;43.13;;;4.28;;
60243;SDS011;46106;51.468;5.814;2023-01-05T04:47:50;43.72;;;4.45;;
60243;SDS011;46106;51.468;5.814;2023-01-05T04:50:16;49.50;;;5.35;;
60243;SDS011;46106;51.468;5.814;2023-01-05T04:52:42;48.22;;;3.95;;
60243;SDS011;46106;51.468;5.814;2023-01-05T04:55:07;58.63;;;5.32;;
60243;SDS011;46106;51.468;5.814;2023-01-05T04:57:33;39.10;;;3.65;;
60243;SDS011;46106;51.468;5.814;2023-01-05T04:59:59;45.38;;;4.85;;
60243;SDS011;46106;51.468;5.814;2023-01-05T05:02:24;39.15;;;4.38;;
60243;SDS011;46106;51.468;5.814;2023-01-05T05:04:50;43.45;;;4.05;;
60243;SDS011;46106;51.468;5.814;2023-01-05T05:07:16;46.15;;;4.45;;
60243;SDS011;46106;51.468;5.814;2023-01-05T05:09:41;46.53;;;4.82;;
60243;SDS011;46106;51.468;5.814;2023-01-05T05:12:07;39.38;;;4.03;;
60243;SDS011;46106;51.468;5.814;2023-01-05T05:14:32;52.47;;;6.45;;
60243;SDS011;46106;51.468;5.814;2023-01-05T05:16:58;44.03;;;4.82;;
60243;SDS011;46106;51.468;5.814;2023-01-05T05:19:23;46.40;;;4.07;;
60243;SDS011;46106;51.468;5.814;2023-01-05T05:21:49;48.22;;;5.25;;
60243;SDS011;46106;51.468;5.814;2023-01-05T05:24:14;47.30;;;3.75;;
60243;SDS011;46106;51.468;5.814;2023-01-05T05:26:40;44.50;;;4.80;;
60243;SDS011;46106;51.468;5.814;2023-01-05T05:29:05;46.83;;;4.85;;
60243;SDS011;46106;51.468;5.814;2023-01-05T05:31:31;43.03;;;5.18;;
60243;SDS011;46106;51.468;5.814;2023-01-05T05:33:56;47.42;;;4.13;;
60243;SDS011;46106;51.468;5.814;2023-01-05T05:36:21;47.53;;;4.63;;
60243;SDS011;46106;51.468;5.814;2023-01-05T05:38:47;39.13;;;4.63;;
60243;SDS011;46106;51.468;5.814;2023-01-05T05:41:12;36.55;;;3.67;;
60243;SDS011;46106;51.468;5.814;2023-01-05T05:43:38;37.40;;;4.35;;
60243;SDS011;46106;51.468;5.814;2023-01-05T05:46:03;49.85;;;4.57;;
60243;SDS011;46106;51.468;5.814;2023-01-05T05:48:29;37.90;;;3.67;;
60243;SDS011;46106;51.468;5.814;2023-01-05T05:50:54;48.55;;;4.45;;
60243;SDS011;46106;51.468;5.814;2023-01-05T05:53:20;53.80;;;6.13;;
60243;SDS011;46106;51.468;5.814;2023-01-05T05:55:49;51.53;;;4.22;;
60243;SDS011;46106;51.468;5.814;2023-01-05T05:58:15;65.22;;;5.43;;
60243;SDS011;46106;51.468;5.814;2023-01-05T06:00:42;41.60;;;4.03;;
60243;SDS011;46106;51.468;5.814;2023-01-05T06:03:08;44.50;;;3.90;;
60243;SDS011;46106;51.468;5.814;2023-01-05T06:05:33;46.03;;;4.28;;
60243;SDS011;46106;51.468;5.814;2023-01-05T06:07:59;56.47;;;5.20;;
60243;SDS011;46106;51.468;5.814;2023-01-05T06:10:24;44.40;;;4.00;;
60243;SDS011;46106;51.468;5.814;2023-01-05T06:12:51;47.25;;;4.07;;
60243;SDS011;46106;51.468;5.814;2023-01-05T06:15:18;46.95;;;4.55;;
60243;SDS011;46106;51.468;5.814;2023-01-05T06:17:44;42.60;;;4.68;;
60243;SDS011;46106;51.468;5.814;2023-01-05T06:20:10;65.32;;;5.88;;
60243;SDS011;46106;51.468;5.814;2023-01-05T06:22:36;40.53;;;3.95;;
60243;SDS011;46106;51.468;5.814;2023-01-05T06:25:02;45.20;;;4.10;;
60243;SDS011;46106;51.468;5.814;2023-01-05T06:27:29;48.85;;;5.63;;
60243;SDS011;46106;51.468;5.814;2023-01-05T06:29:54;49.00;;;5.32;;
60243;SDS011;46106;51.468;5.814;2023-01-05T06:32:20;54.85;;;4.95;;
60243;SDS011;46106;51.468;5.814;2023-01-05T06:34:45;51.33;;;4.65;;
60243;SDS011;46106;51.468;5.814;2023-01-05T06:37:10;50.58;;;5.68;;
60243;SDS011;46106;51.468;5.814;2023-01-05T06:39:36;47.45;;;5.93;;
60243;SDS011;46106;51.468;5.814;2023-01-05T06:42:01;57.70;;;5.28;;
60243;SDS011;46106;51.468;5.814;2023-01-05T06:44:27;51.20;;;5.38;;
60243;SDS011;46106;51.468;5.814;2023-01-05T06:46:52;48.53;;;4.63;;
60243;SDS011;46106;51.468;5.814;2023-01-05T06:49:17;39.45;;;4.43;;
60243;SDS011;46106;51.468;5.814;2023-01-05T06:51:43;43.55;;;4.28;;
60243;SDS011;46106;51.468;5.814;2023-01-05T06:54:08;64.18;;;4.38;;
60243;SDS011;46106;51.468;5.814;2023-01-05T06:56:35;56.63;;;4.90;;
60243;SDS011;46106;51.468;5.814;2023-01-05T06:59:00;53.60;;;5.30;;
60243;SDS011;46106;51.468;5.814;2023-01-05T07:01:26;74.55;;;5.43;;
60243;SDS011;46106;51.468;5.814;2023-01-05T07:03:51;45.35;;;4.45;;
60243;SDS011;46106;51.468;5.814;2023-01-05T07:06:17;53.45;;;5.65;;
60243;SDS011;46106;51.468;5.814;2023-01-05T07:08:42;58.47;;;5.05;;
60243;SDS011;46106;51.468;5.814;2023-01-05T07:11:08;49.42;;;5.30;;
60243;SDS011;46106;51.468;5.814;2023-01-05T07:13:33;41.25;;;4.63;;
60243;SDS011;46106;51.468;5.814;2023-01-05T07:15:59;47.58;;;4.22;;
60243;SDS011;46106;51.468;5.814;2023-01-05T07:18:24;59.55;;;4.63;;
60243;SDS011;46106;51.468;5.814;2023-01-05T07:20:50;51.60;;;5.50;;
60243;SDS011;46106;51.468;5.814;2023-01-05T07:23:15;77.35;;;6.85;;
60243;SDS011;46106;51.468;5.814;2023-01-05T07:25:41;56.25;;;5.50;;
60243;SDS011;46106;51.468;5.814;2023-01-05T07:28:06;48.00;;;5.07;;
60243;SDS011;46106;51.468;5.814;2023-01-05T07:30:31;55.58;;;5.35;;
60243;SDS011;46106;51.468;5.814;2023-01-05T07:33:00;68.35;;;5.25;;
60243;SDS011;46106;51.468;5.814;2023-01-05T07:35:26;55.67;;;6.07;;
60243;SDS011;46106;51.468;5.814;2023-01-05T07:37:54;66.20;;;5.60;;
60243;SDS011;46106;51.468;5.814;2023-01-05T07:40:20;69.72;;;5.82;;
60243;SDS011;46106;51.468;5.814;2023-01-05T07:42:49;60.53;;;5.00;;
60243;SDS011;46106;51.468;5.814;2023-01-05T07:45:18;65.00;;;6.38;;
60243;SDS011;46106;51.468;5.814;2023-01-05T07:47:44;56.15;;;5.28;;
60243;SDS011;46106;51.468;5.814;2023-01-05T07:50:10;64.88;;;5.85;;
60243;SDS011;46106;51.468;5.814;2023-01-05T07:52:35;60.60;;;7.75;;
60243;SDS011;46106;51.468;5.814;2023-01-05T07:55:01;66.82;;;6.35;;
60243;SDS011;46106;51.468;5.814;2023-01-05T07:57:26;71.45;;;5.70;;
60243;SDS011;46106;51.468;5.814;2023-01-05T07:59:51;60.78;;;5.97;;
60243;SDS011;46106;51.468;5.814;2023-01-05T08:02:17;67.40;;;7.35;;
60243;SDS011;46106;51.468;5.814;2023-01-05T08:04:42;56.00;;;6.43;;
60243;SDS011;46106;51.468;5.814;2023-01-05T08:07:08;57.63;;;5.95;;
60243;SDS011;46106;51.468;5.814;2023-01-05T08:09:35;57.40;;;5.93;;
60243;SDS011;46106;51.468;5.814;2023-01-05T08:12:22;51.92;;;5.40;;
60243;SDS011;46106;51.468;5.814;2023-01-05T08:14:48;51.75;;;5.70;;
60243;SDS011;46106;51.468;5.814;2023-01-05T08:17:13;59.17;;;5.85;;
60243;SDS011;46106;51.468;5.814;2023-01-05T08:19:39;52.53;;;5.63;;
60243;SDS011;46106;51.468;5.814;2023-01-05T08:22:04;55.80;;;5.45;;
60243;SDS011;46106;51.468;5.814;2023-01-05T08:24:29;56.75;;;6.25;;
60243;SDS011;46106;51.468;5.814;2023-01-05T08:26:55;71.30;;;7.00;;
60243;SDS011;46106;51.468;5.814;2023-01-05T08:29:20;55.28;;;5.90;;
60243;SDS011;46106;51.468;5.814;2023-01-05T08:31:46;59.88;;;5.70;;
60243;SDS011;46106;51.468;5.814;2023-01-05T08:34:12;58.38;;;5.50;;
60243;SDS011;46106;51.468;5.814;2023-01-05T08:36:38;65.57;;;5.80;;
60243;SDS011;46106;51.468;5.814;2023-01-05T08:39:04;75.97;;;6.18;;
60243;SDS011;46106;51.468;5.814;2023-01-05T08:41:31;55.13;;;5.22;;
60243;SDS011;46106;51.468;5.814;2023-01-05T08:44:02;49.63;;;5.78;;
60243;SDS011;46106;51.468;5.814;2023-01-05T08:46:31;63.13;;;6.75;;
60243;SDS011;46106;51.468;5.814;2023-01-05T08:48:58;56.95;;;6.13;;
60243;SDS011;46106;51.468;5.814;2023-01-05T08:51:25;73.03;;;5.75;;
60243;SDS011;46106;51.468;5.814;2023-01-05T08:53:52;75.28;;;6.68;;
60243;SDS011;46106;51.468;5.814;2023-01-05T08:56:18;51.97;;;6.00;;
60243;SDS011;46106;51.468;5.814;2023-01-05T08:58:44;49.97;;;4.75;;
60243;SDS011;46106;51.468;5.814;2023-01-05T09:01:10;55.53;;;5.60;;
60243;SDS011;46106;51.468;5.814;2023-01-05T09:03:37;56.05;;;5.53;;
60243;SDS011;46106;51.468;5.814;2023-01-05T09:06:03;58.05;;;6.13;;
60243;SDS011;46106;51.468;5.814;2023-01-05T09:08:30;50.72;;;5.38;;
60243;SDS011;46106;51.468;5.814;2023-01-05T09:11:06;53.70;;;6.05;;
60243;SDS011;46106;51.468;5.814;2023-01-05T09:13:37;49.20;;;4.97;;
60243;SDS011;46106;51.468;5.814;2023-01-05T09:16:05;53.65;;;5.13;;
60243;SDS011;46106;51.468;5.814;2023-01-05T09:18:35;56.83;;;6.65;;
60243;SDS011;46106;51.468;5.814;2023-01-05T09:21:02;74.57;;;6.32;;
60243;SDS011;46106;51.468;5.814;2023-01-05T09:23:28;50.47;;;6.18;;
60243;SDS011;46106;51.468;5.814;2023-01-05T09:25:53;38.78;;;5.20;;
60243;SDS011;46106;51.468;5.814;2023-01-05T09:28:19;59.92;;;6.55;;
60243;SDS011;46106;51.468;5.814;2023-01-05T09:30:44;59.58;;;5.38;;
60243;SDS011;46106;51.468;5.814;2023-01-05T09:33:09;54.83;;;5.90;;
60243;SDS011;46106;51.468;5.814;2023-01-05T09:35:35;59.70;;;7.72;;
60243;SDS011;46106;51.468;5.814;2023-01-05T09:38:00;62.15;;;6.05;;
60243;SDS011;46106;51.468;5.814;2023-01-05T09:40:26;51.50;;;5.50;;
60243;SDS011;46106;51.468;5.814;2023-01-05T09:42:52;69.15;;;6.30;;
60243;SDS011;46106;51.468;5.814;2023-01-05T09:45:25;56.85;;;5.90;;
60243;SDS011;46106;51.468;5.814;2023-01-05T09:47:52;57.75;;;5.03;;
60243;SDS011;46106;51.468;5.814;2023-01-05T09:50:21;53.60;;;5.97;;
60243;SDS011;46106;51.468;5.814;2023-01-05T09:52:48;52.50;;;5.07;;
60243;SDS011;46106;51.468;5.814;2023-01-05T09:55:17;56.13;;;6.82;;
60243;SDS011;46106;51.468;5.814;2023-01-05T09:58:09;54.45;;;6.03;;
60243;SDS011;46106;51.468;5.814;2023-01-05T10:00:43;64.13;;;6.68;;
60243;SDS011;46106;51.468;5.814;2023-01-05T10:03:18;44.58;;;4.85;;
60243;SDS011;46106;51.468;5.814;2023-01-05T10:05:47;57.17;;;5.25;;
60243;SDS011;46106;51.468;5.814;2023-01-05T10:08:35;59.35;;;5.25;;
60243;SDS011;46106;51.468;5.814;2023-01-05T10:11:07;45.13;;;6.13;;
60243;SDS011;46106;51.468;5.814;2023-01-05T10:14:16;52.33;;;5.85;;
60243;SDS011;46106;51.468;5.814;2023-01-05T10:16:47;57.08;;;6.82;;
60243;SDS011;46106;51.468;5.814;2023-01-05T10:19:14;58.53;;;5.65;;
60243;SDS011;46106;51.468;5.814;2023-01-05T10:21:52;44.85;;;4.13;;
60243;SDS011;46106;51.468;5.814;2023-01-05T10:24:29;48.80;;;4.93;;
60243;SDS011;46106;51.468;5.814;2023-01-05T10:29:42;47.35;;;4.43;;
60243;SDS011;46106;51.468;5.814;2023-01-05T10:32:15;38.47;;;4.43;;
60243;SDS011;46106;51.468;5.814;2023-01-05T10:34:58;74.22;;;7.55;;
60243;SDS011;46106;51.468;5.814;2023-01-05T10:43:09;42.42;;;5.03;;
60243;SDS011;46106;51.468;5.814;2023-01-05T10:45:37;68.95;;;5.18;;
60243;SDS011;46106;51.468;5.814;2023-01-05T10:48:08;59.45;;;6.40;;
60243;SDS011;46106;51.468;5.814;2023-01-05T10:50:41;46.28;;;4.97;;
60243;SDS011;46106;51.468;5.814;2023-01-05T10:53:14;55.42;;;6.82;;
60243;SDS011;46106;51.468;5.814;2023-01-05T10:55:47;49.95;;;5.97;;
60243;SDS011;46106;51.468;5.814;2023-01-05T10:58:21;49.17;;;5.38;;
60243;SDS011;46106;51.468;5.814;2023-01-05T11:00:51;56.78;;;6.13;;
60243;SDS011;46106;51.468;5.814;2023-01-05T11:03:20;48.65;;;5.78;;
60243;SDS011;46106;51.468;5.814;2023-01-05T11:08:18;48.53;;;4.45;;
60243;SDS011;46106;51.468;5.814;2023-01-05T11:10:50;58.15;;;5.85;;
60243;SDS011;46106;51.468;5.814;2023-01-05T11:16:10;48.83;;;5.82;;
60243;SDS011;46106;51.468;5.814;2023-01-05T11:24:03;50.03;;;5.25;;
60243;SDS011;46106;51.468;5.814;2023-01-05T11:26:34;61.08;;;5.22;;
60243;SDS011;46106;51.468;5.814;2023-01-05T11:29:12;55.40;;;6.70;;
60243;SDS011;46106;51.468;5.814;2023-01-05T11:39:34;57.08;;;5.55;;
60243;SDS011;46106;51.468;5.814;2023-01-05T11:48:00;53.90;;;6.32;;
60243;SDS011;46106;51.468;5.814;2023-01-05T11:50:52;56.22;;;6.22;;
60243;SDS011;46106;51.468;5.814;2023-01-05T11:56:13;48.20;;;6.32;;
60243;SDS011;46106;51.468;5.814;2023-01-05T11:58:45;62.42;;;6.70;;
60243;SDS011;46106;51.468;5.814;2023-01-05T12:04:06;45.03;;;5.32;;
60243;SDS011;46106;51.468;5.814;2023-01-05T12:14:51;52.08;;;6.32;;
60243;SDS011;46106;51.468;5.814;2023-01-05T12:17:43;40.50;;;5.28;;
60243;SDS011;46106;51.468;5.814;2023-01-05T12:23:05;51.58;;;5.90;;
60243;SDS011;46106;51.468;5.814;2023-01-05T12:50:51;56.03;;;7.15;;
60243;SDS011;46106;51.468;5.814;2023-01-05T12:55:44;54.58;;;8.38;;
60243;SDS011;46106;51.468;5.814;2023-01-05T12:58:21;48.47;;;7.65;;
60243;SDS011;46106;51.468;5.814;2023-01-05T13:00:54;45.28;;;7.07;;
60243;SDS011;46106;51.468;5.814;2023-01-05T13:03:29;41.72;;;7.20;;
60243;SDS011;46106;51.468;5.814;2023-01-05T13:06:21;47.90;;;7.78;;
60243;SDS011;46106;51.468;5.814;2023-01-05T13:08:54;41.65;;;5.85;;
60243;SDS011;46106;51.468;5.814;2023-01-05T13:11:28;53.72;;;7.05;;
60243;SDS011;46106;51.468;5.814;2023-01-05T13:13:59;43.55;;;6.38;;
60243;SDS011;46106;51.468;5.814;2023-01-05T13:16:40;43.47;;;6.20;;
60243;SDS011;46106;51.468;5.814;2023-01-05T13:19:16;41.38;;;6.28;;
60243;SDS011;46106;51.468;5.814;2023-01-05T13:21:45;47.25;;;7.03;;
60243;SDS011;46106;51.468;5.814;2023-01-05T13:24:13;37.70;;;5.82;;
60243;SDS011;46106;51.468;5.814;2023-01-05T13:26:47;48.30;;;7.57;;
60243;SDS011;46106;51.468;5.814;2023-01-05T13:29:20;54.90;;;6.65;;
60243;SDS011;46106;51.468;5.814;2023-01-05T13:31:56;47.05;;;8.57;;
60243;SDS011;46106;51.468;5.814;2023-01-05T13:44:13;46.17;;;8.25;;
60243;SDS011;46106;51.468;5.814;2023-01-05T13:46:52;62.83;;;8.90;;
60243;SDS011;46106;51.468;5.814;2023-01-05T13:49:52;46.53;;;8.40;;
60243;SDS011;46106;51.468;5.814;2023-01-05T13:55:23;49.17;;;9.27;;
60243;SDS011;46106;51.468;5.814;2023-01-05T13:57:50;45.67;;;10.15;;
60243;SDS011;46106;51.468;5.814;2023-01-05T14:02:45;57.22;;;10.32;;
60243;SDS011;46106;51.468;5.814;2023-01-05T14:05:47;57.17;;;9.77;;
60243;SDS011;46106;51.468;5.814;2023-01-05T14:08:26;49.88;;;9.27;;
60243;SDS011;46106;51.468;5.814;2023-01-05T14:22:02;43.40;;;10.25;;
60243;SDS011;46106;51.468;5.814;2023-01-05T14:24:45;60.25;;;10.73;;
60243;SDS011;46106;51.468;5.814;2023-01-05T14:27:16;50.85;;;10.48;;
60243;SDS011;46106;51.468;5.814;2023-01-05T14:29:56;60.67;;;11.48;;
60243;SDS011;46106;51.468;5.814;2023-01-05T14:32:33;54.95;;;11.02;;
60243;SDS011;46106;51.468;5.814;2023-01-05T14:35:06;56.78;;;11.02;;
60243;SDS011;46106;51.468;5.814;2023-01-05T14:42:46;52.88;;;11.20;;
60243;SDS011;46106;51.468;5.814;2023-01-05T14:47:53;51.65;;;10.68;;
60243;SDS011;46106;51.468;5.814;2023-01-05T14:50:31;54.53;;;11.25;;
60243;SDS011;46106;51.468;5.814;2023-01-05T14:59:03;53.78;;;9.73;;
60243;SDS011;46106;51.468;5.814;2023-01-05T15:09:17;38.25;;;7.35;;
60243;SDS011;46106;51.468;5.814;2023-01-05T15:19:33;55.72;;;9.75;;
60243;SDS011;46106;51.468;5.814;2023-01-05T15:22:52;56.28;;;9.07;;
60243;SDS011;46106;51.468;5.814;2023-01-05T15:28:38;68.83;;;10.37;;
60243;SDS011;46106;51.468;5.814;2023-01-05T15:34:13;47.03;;;6.43;;
60243;SDS011;46106;51.468;5.814;2023-01-05T15:39:45;47.42;;;6.22;;
60243;SDS011;46106;51.468;5.814;2023-01-05T15:42:20;54.53;;;4.85;;
60243;SDS011;46106;51.468;5.814;2023-01-05T15:44:52;52.20;;;6.30;;
60243;SDS011;46106;51.468;5.814;2023-01-05T15:47:19;50.72;;;6.30;;
60243;SDS011;46106;51.468;5.814;2023-01-05T15:49:46;56.83;;;6.20;;
60243;SDS011;46106;51.468;5.814;2023-01-05T15:52:18;66.35;;;7.30;;
60243;SDS011;46106;51.468;5.814;2023-01-05T15:55:00;57.25;;;6.47;;
60243;SDS011;46106;51.468;5.814;2023-01-05T15:57:28;50.85;;;6.00;;
60243;SDS011;46106;51.468;5.814;2023-01-05T15:59:53;65.70;;;6.47;;
60243;SDS011;46106;51.468;5.814;2023-01-05T16:02:26;42.28;;;4.82;;
60243;SDS011;46106;51.468;5.814;2023-01-05T16:05:10;46.78;;;6.00;;
60243;SDS011;46106;51.468;5.814;2023-01-05T16:07:44;50.33;;;4.88;;
60243;SDS011;46106;51.468;5.814;2023-01-05T16:10:17;47.33;;;6.57;;
60243;SDS011;46106;51.468;5.814;2023-01-05T16:12:46;47.10;;;5.10;;
60243;SDS011;46106;51.468;5.814;2023-01-05T16:15:15;44.38;;;5.00;;
60243;SDS011;46106;51.468;5.814;2023-01-05T16:17:45;63.35;;;6.72;;
60243;SDS011;46106;51.468;5.814;2023-01-05T16:20:14;46.92;;;5.22;;
60243;SDS011;46106;51.468;5.814;2023-01-05T16:22:48;55.95;;;6.65;;
60243;SDS011;46106;51.468;5.814;2023-01-05T16:25:25;59.58;;;5.63;;
60243;SDS011;46106;51.468;5.814;2023-01-05T16:27:59;43.63;;;5.88;;
60243;SDS011;46106;51.468;5.814;2023-01-05T16:30:31;66.22;;;6.63;;
60243;SDS011;46106;51.468;5.814;2023-01-05T16:35:49;53.17;;;5.43;;
60243;SDS011;46106;51.468;5.814;2023-01-05T16:51:06;63.47;;;7.07;;
60243;SDS011;46106;51.468;5.814;2023-01-05T16:53:42;56.70;;;7.65;;
60243;SDS011;46106;51.468;5.814;2023-01-05T16:56:53;62.05;;;7.68;;
60243;SDS011;46106;51.468;5.814;2023-01-05T16:58:59;46.38;;;7.75;;
60243;SDS011;46106;51.468;5.814;2023-01-05T17:01:34;66.45;;;8.57;;
60243;SDS011;46106;51.468;5.814;2023-01-05T17:04:10;71.30;;;8.60;;
60243;SDS011;46106;51.468;5.814;2023-01-05T17:06:37;57.80;;;8.70;;
60243;SDS011;46106;51.468;5.814;2023-01-05T17:09:06;62.10;;;9.25;;
60243;SDS011;46106;51.468;5.814;2023-01-05T17:11:40;66.68;;;9.68;;
60243;SDS011;46106;51.468;5.814;2023-01-05T17:14:06;54.13;;;9.57;;
60243;SDS011;46106;51.468;5.814;2023-01-05T17:16:32;49.22;;;10.30;;
60243;SDS011;46106;51.468;5.814;2023-01-05T17:18:57;53.22;;;10.20;;
60243;SDS011;46106;51.468;5.814;2023-01-05T17:21:24;47.72;;;10.93;;
60243;SDS011;46106;51.468;5.814;2023-01-05T17:23:53;64.40;;;10.68;;
60243;SDS011;46106;51.468;5.814;2023-01-05T17:26:22;61.58;;;10.45;;
60243;SDS011;46106;51.468;5.814;2023-01-05T17:28:52;58.10;;;11.10;;
60243;SDS011;46106;51.468;5.814;2023-01-05T17:31:22;53.90;;;11.35;;
60243;SDS011;46106;51.468;5.814;2023-01-05T17:33:47;42.92;;;9.75;;
60243;SDS011;46106;51.468;5.814;2023-01-05T17:36:12;59.40;;;11.57;;
60243;SDS011;46106;51.468;5.814;2023-01-05T17:38:38;57.60;;;11.73;;
60243;SDS011;46106;51.468;5.814;2023-01-05T17:41:04;59.10;;;11.95;;
60243;SDS011;46106;51.468;5.814;2023-01-05T17:43:29;54.30;;;11.90;;
60243;SDS011;46106;51.468;5.814;2023-01-05T17:45:55;59.97;;;12.18;;
60243;SDS011;46106;51.468;5.814;2023-01-05T17:48:21;59.65;;;13.32;;
60243;SDS011;46106;51.468;5.814;2023-01-05T17:50:46;54.67;;;13.63;;
60243;SDS011;46106;51.468;5.814;2023-01-05T17:53:12;61.30;;;14.63;;
60243;SDS011;46106;51.468;5.814;2023-01-05T17:55:37;66.15;;;16.45;;